Time,TemperatureF,DewpointF,PressureIn,WindDirection,WindDirectionDegrees,WindSpeedMPH,WindSpeedGustMPH,Humidity,HourlyPrecipIn,Conditions,Clouds,dailyrainin,SoftwareType,DateUTC
2013-01-24 00:16:00,6.6,-8.0,30.12,WNW,287,11.0,-999.0,52,-99.99,,,0.00,weatherlink.com 1.10,2013-01-24 05:16:00,
2013-01-24 00:31:00,6.5,-8.0,30.12,WNW,285,5.0,-999.0,52,-99.99,,,0.00,weatherlink.com 1.10,2013-01-24 05:31:00,
2013-01-24 00:46:00,6.7,-8.0,30.12,WNW,295,7.0,-999.0,52,-99.99,,,0.00,weatherlink.com 1.10,2013-01-24 05:46:00,
2013-01-24 01:01:00,6.8,-8.0,30.12,WNW,301,2.0,-999.0,52,-99.99,,,0.00,weatherlink.com 1.10,2013-01-24 06:01:00,
2013-01-24 01:16:00,6.8,-8.0,30.12,West,280,12.0,-999.0,52,-99.99,,,0.00,weatherlink.com 1.10,2013-01-24 06:16:00,
2013-01-24 01:31:00,7.0,-8.0,30.12,WNW,288,8.0,-999.0,51,-99.99,,,0.00,weatherlink.com 1.10,2013-01-24 06:31:00,
2013-01-24 01:46:00,7.0,-8.0,30.12,WNW,294,4.0,-999.0,51,-99.99,,,0.00,weatherlink.com 1.10,2013-01-24 06:46:00,
2013-01-24 02:01:00,6.9,-8.0,30.13,NW,313,5.0,-999.0,51,-99.99,,,0.00,weatherlink.com 1.10,2013-01-24 07:01:00,
2013-01-24 02:16:00,6.7,-8.0,30.12,WNW,288,3.0,-999.0,52,-99.99,,,0.00,weatherlink.com 1.10,2013-01-24 07:16:00,
2013-01-24 02:31:00,6.3,-8.0,30.13,WNW,291,4.0,-999.0,53,-99.99,,,0.00,weatherlink.com 1.10,2013-01-24 07:31:00,
2013-01-24 02:46:00,6.2,-7.0,30.12,WNW,290,0.0,-999.0,54,-99.99,,,0.00,weatherlink.com 1.10,2013-01-24 07:46:00,
2013-01-24 03:01:00,5.9,-8.0,30.11,West,276,0.0,-999.0,54,-99.99,,,0.00,weatherlink.com 1.10,2013-01-24 08:01:00,
2013-01-24 03:16:00,5.6,-7.0,30.11,WNW,290,3.0,-999.0,55,-99.99,,,0.00,weatherlink.com 1.10,2013-01-24 08:16:00,
2013-01-24 03:31:00,5.5,-8.0,30.11,WNW,286,1.0,-999.0,55,-99.99,,,0.00,weatherlink.com 1.10,2013-01-24 08:31:00,
2013-01-24 03:46:00,5.5,-8.0,30.11,NW,307,2.0,-999.0,55,-99.99,,,0.00,weatherlink.com 1.10,2013-01-24 08:46:00,
2013-01-24 04:01:00,5.3,-8.0,30.10,WNW,299,2.0,-999.0,55,-99.99,,,0.00,weatherlink.com 1.10,2013-01-24 09:01:00,
2013-01-24 04:16:00,5.2,-7.0,30.09,NW,311,3.0,-999.0,56,-99.99,,,0.00,weatherlink.com 1.10,2013-01-24 09:16:00,
2013-01-24 04:31:00,5.2,-7.0,30.10,WNW,298,3.0,-999.0,56,-99.99,,,0.00,weatherlink.com 1.10,2013-01-24 09:31:00,
2013-01-24 04:46:00,5.0,-8.0,30.10,NW,314,4.0,-999.0,56,-99.99,,,0.00,weatherlink.com 1.10,2013-01-24 09:46:00,
2013-01-24 05:01:00,4.7,-8.0,30.10,WNW,296,3.0,-999.0,57,-99.99,,,0.00,weatherlink.com 1.10,2013-01-24 10:01:00,
2013-01-24 05:16:00,4.5,-8.0,30.10,WNW,301,3.0,-999.0,57,-99.99,,,0.00,weatherlink.com 1.10,2013-01-24 10:16:00,
2013-01-24 05:31:00,4.0,-8.0,30.11,WNW,296,2.0,-999.0,58,-99.99,,,0.00,weatherlink.com 1.10,2013-01-24 10:31:00,
2013-01-24 05:46:00,3.6,-8.0,30.11,WNW,291,3.0,-999.0,59,-99.99,,,0.00,weatherlink.com 1.10,2013-01-24 10:46:00,
2013-01-24 06:01:00,3.2,-8.0,30.12,West,270,0.0,-999.0,61,-99.99,,,0.00,weatherlink.com 1.10,2013-01-24 11:01:00,
2013-01-24 06:16:00,2.8,-8.0,30.12,West,271,0.0,-999.0,61,-99.99,,,0.00,weatherlink.com 1.10,2013-01-24 11:16:00,
2013-01-24 06:31:00,2.7,-8.0,30.11,WNW,286,1.0,-999.0,62,-99.99,,,0.00,weatherlink.com 1.10,2013-01-24 11:31:00,
2013-01-24 06:46:00,2.5,-8.0,30.12,WNW,286,2.0,-999.0,63,-99.99,,,0.00,weatherlink.com 1.10,2013-01-24 11:46:00,
2013-01-24 07:01:00,2.4,-7.0,30.12,WNW,293,2.0,-999.0,64,-99.99,,,0.00,weatherlink.com 1.10,2013-01-24 12:01:00,
2013-01-24 07:16:00,2.4,-7.0,30.12,WNW,288,7.0,-999.0,64,-99.99,,,0.00,weatherlink.com 1.10,2013-01-24 12:16:00,
2013-01-24 07:31:00,2.6,-7.0,30.12,WNW,290,1.0,-999.0,64,-99.99,,,0.00,weatherlink.com 1.10,2013-01-24 12:31:00,
2013-01-24 07:46:00,3.1,-7.0,30.12,WNW,296,0.0,-999.0,64,-99.99,,,0.00,weatherlink.com 1.10,2013-01-24 12:46:00,
2013-01-24 08:01:00,3.8,-6.0,30.12,NW,305,0.0,-999.0,63,-99.99,,,0.00,weatherlink.com 1.10,2013-01-24 13:01:00,
2013-01-24 08:16:00,4.9,-6.0,30.13,NW,325,2.0,-999.0,61,-99.99,,,0.00,weatherlink.com 1.10,2013-01-24 13:16:00,
2013-01-24 08:31:00,5.9,-6.0,30.12,NW,321,13.0,-999.0,58,-99.99,,,0.00,weatherlink.com 1.10,2013-01-24 13:31:00,
2013-01-24 08:46:00,6.6,-7.0,30.12,NW,307,3.0,-999.0,54,-99.99,,,0.00,weatherlink.com 1.10,2013-01-24 13:46:00,
2013-01-24 09:01:00,7.6,-7.0,30.12,WNW,300,1.0,-999.0,51,-99.99,,,0.00,weatherlink.com 1.10,2013-01-24 14:01:00,
2013-01-24 09:16:00,8.5,-7.0,30.12,NNW,333,9.0,-999.0,50,-99.99,,,0.00,weatherlink.com 1.10,2013-01-24 14:16:00,
2013-01-24 09:31:00,9.2,-7.0,30.12,NW,306,3.0,-999.0,48,-99.99,,,0.00,weatherlink.com 1.10,2013-01-24 14:31:00,
2013-01-24 09:46:00,9.6,-7.0,30.12,NW,319,5.0,-999.0,47,-99.99,,,0.00,weatherlink.com 1.10,2013-01-24 14:46:00,
2013-01-24 10:01:00,10.8,-6.0,30.12,North,359,11.0,-999.0,46,-99.99,,,0.00,weatherlink.com 1.10,2013-01-24 15:01:00,
2013-01-24 10:16:00,11.2,-6.0,30.12,West,280,12.0,-999.0,46,-99.99,,,0.00,weatherlink.com 1.10,2013-01-24 15:16:00,
2013-01-24 10:31:00,11.7,-6.0,30.12,West,276,4.0,-999.0,44,-99.99,,,0.00,weatherlink.com 1.10,2013-01-24 15:31:00,
2013-01-24 10:46:00,11.9,-6.0,30.12,NNW,345,7.0,-999.0,44,-99.99,,,0.00,weatherlink.com 1.10,2013-01-24 15:46:00,
2013-01-24 11:01:00,13.0,-5.0,30.11,WNW,294,4.0,-999.0,45,-99.99,,,0.00,weatherlink.com 1.10,2013-01-24 16:01:00,
2013-01-24 11:16:00,13.7,-5.0,30.10,NNE,23,2.0,-999.0,44,-99.99,,,0.00,weatherlink.com 1.10,2013-01-24 16:16:00,
2013-01-24 11:31:00,14.3,-5.0,30.10,NE,42,6.0,-999.0,43,-99.99,,,0.00,weatherlink.com 1.10,2013-01-24 16:31:00,
2013-01-24 11:46:00,14.9,-5.0,30.09,WNW,295,6.0,-999.0,42,-99.99,,,0.00,weatherlink.com 1.10,2013-01-24 16:46:00,
2013-01-24 12:01:00,15.2,-6.0,30.09,North,9,14.0,-999.0,38,-99.99,,,0.00,weatherlink.com 1.10,2013-01-24 17:01:00,
2013-01-24 12:16:00,16.2,-5.0,30.08,WNW,294,3.0,-999.0,39,-99.99,,,0.00,weatherlink.com 1.10,2013-01-24 17:16:00,
2013-01-24 12:31:00,16.6,-6.0,30.07,NNW,330,10.0,-999.0,37,-99.99,,,0.00,weatherlink.com 1.10,2013-01-24 17:31:00,
2013-01-24 12:46:00,17.0,-5.0,30.07,NNW,328,5.0,-999.0,37,-99.99,,,0.00,weatherlink.com 1.10,2013-01-24 17:46:00,
2013-01-24 13:01:00,17.4,-5.0,30.07,NNW,345,4.0,-999.0,37,-99.99,,,0.00,weatherlink.com 1.10,2013-01-24 18:01:00,
2013-01-24 13:16:00,17.7,-5.0,30.07,WNW,301,3.0,-999.0,36,-99.99,,,0.00,weatherlink.com 1.10,2013-01-24 18:16:00,
2013-01-24 13:31:00,18.0,-5.0,30.07,NW,307,6.0,-999.0,36,-99.99,,,0.00,weatherlink.com 1.10,2013-01-24 18:31:00,
2013-01-24 13:46:00,18.4,-5.0,30.07,NW,309,14.0,-999.0,36,-99.99,,,0.00,weatherlink.com 1.10,2013-01-24 18:46:00,
2013-01-24 14:01:00,18.9,-4.0,30.07,West,267,14.0,-999.0,36,-99.99,,,0.00,weatherlink.com 1.10,2013-01-24 19:01:00,
2013-01-24 14:16:00,19.1,-5.0,30.07,WNW,296,5.0,-999.0,35,-99.99,,,0.00,weatherlink.com 1.10,2013-01-24 19:16:00,
2013-01-24 14:31:00,19.2,-6.0,30.07,NW,310,12.0,-999.0,33,-99.99,,,0.00,weatherlink.com 1.10,2013-01-24 19:31:00,
2013-01-24 14:46:00,19.1,-6.0,30.07,NW,326,6.0,-999.0,33,-99.99,,,0.00,weatherlink.com 1.10,2013-01-24 19:46:00,
2013-01-24 15:01:00,19.4,-5.0,30.06,NW,311,9.0,-999.0,33,-99.99,,,0.00,weatherlink.com 1.10,2013-01-24 20:01:00,
2013-01-24 15:16:00,19.5,-5.0,30.07,NW,316,4.0,-999.0,33,-99.99,,,0.00,weatherlink.com 1.10,2013-01-24 20:16:00,
2013-01-24 15:31:00,19.8,-6.0,30.07,NNW,333,7.0,-999.0,32,-99.99,,,0.00,weatherlink.com 1.10,2013-01-24 20:31:00,
2013-01-24 15:46:00,19.6,-5.0,30.08,NW,317,10.0,-999.0,33,-99.99,,,0.00,weatherlink.com 1.10,2013-01-24 20:46:00,
2013-01-24 16:01:00,19.3,-6.0,30.08,WNW,297,7.0,-999.0,33,-99.99,,,0.00,weatherlink.com 1.10,2013-01-24 21:01:00,
2013-01-24 16:16:00,19.0,-6.0,30.09,NNW,328,11.0,-999.0,33,-99.99,,,0.00,weatherlink.com 1.10,2013-01-24 21:16:00,
2013-01-24 16:31:00,18.7,-5.0,30.09,WNW,303,12.0,-999.0,34,-99.99,,,0.00,weatherlink.com 1.10,2013-01-24 21:31:00,
2013-01-24 16:46:00,18.3,-6.0,30.10,West,272,12.0,-999.0,34,-99.99,,,0.00,weatherlink.com 1.10,2013-01-24 21:46:00,
2013-01-24 17:01:00,17.9,-5.0,30.12,WNW,288,8.0,-999.0,36,-99.99,,,0.00,weatherlink.com 1.10,2013-01-24 22:01:00,
2013-01-24 17:19:00,17.5,-6.0,30.12,WNW,286,9.0,-999.0,35,-99.99,,,0.00,weatherlink.com 1.10,2013-01-24 22:19:00,
2013-01-24 17:31:00,17.3,-6.0,30.12,WNW,290,4.0,-999.0,35,-99.99,,,0.00,weatherlink.com 1.10,2013-01-24 22:31:00,
2013-01-24 17:46:00,17.2,-6.0,30.13,NNW,327,3.0,-999.0,36,-99.99,,,0.00,weatherlink.com 1.10,2013-01-24 22:46:00,
2013-01-24 18:01:00,17.1,-6.0,30.14,NW,317,4.0,-999.0,36,-99.99,,,0.00,weatherlink.com 1.10,2013-01-24 23:01:00,
2013-01-24 18:16:00,16.8,-5.0,30.14,WSW,244,7.0,-999.0,37,-99.99,,,0.00,weatherlink.com 1.10,2013-01-24 23:16:00,
2013-01-24 18:32:00,16.2,-5.0,30.15,West,273,7.0,-999.0,38,-99.99,,,0.00,weatherlink.com 1.10,2013-01-24 23:32:00,
2013-01-24 18:46:00,16.3,-5.0,30.15,WNW,301,3.0,-999.0,39,-99.99,,,0.00,weatherlink.com 1.10,2013-01-24 23:46:00,
2013-01-24 19:01:00,16.1,-4.0,30.15,WNW,298,5.0,-999.0,40,-99.99,,,0.00,weatherlink.com 1.10,2013-01-25 00:01:00,
2013-01-24 19:16:00,15.9,-5.0,30.15,WNW,286,7.0,-999.0,40,-99.99,,,0.00,weatherlink.com 1.10,2013-01-25 00:16:00,
2013-01-24 19:31:00,15.7,-5.0,30.16,WNW,294,9.0,-999.0,40,-99.99,,,0.00,weatherlink.com 1.10,2013-01-25 00:31:00,
2013-01-24 19:46:00,15.6,-5.0,30.16,WNW,284,13.0,-999.0,40,-99.99,,,0.00,weatherlink.com 1.10,2013-01-25 00:46:00,
2013-01-24 20:01:00,15.3,-6.0,30.17,WNW,295,9.0,-999.0,39,-99.99,,,0.00,weatherlink.com 1.10,2013-01-25 01:01:00,
2013-01-24 20:16:00,14.9,-6.0,30.17,WNW,290,5.0,-999.0,39,-99.99,,,0.00,weatherlink.com 1.10,2013-01-25 01:16:00,
2013-01-24 20:32:00,14.5,-6.0,30.18,West,277,7.0,-999.0,39,-99.99,,,0.00,weatherlink.com 1.10,2013-01-25 01:32:00,
2013-01-24 20:46:00,14.3,-6.0,30.18,WSW,257,13.0,-999.0,40,-99.99,,,0.00,weatherlink.com 1.10,2013-01-25 01:46:00,
2013-01-24 21:01:00,13.9,-6.0,30.18,WNW,291,4.0,-999.0,40,-99.99,,,0.00,weatherlink.com 1.10,2013-01-25 02:01:00,
2013-01-24 21:17:00,13.6,-6.0,30.18,NW,305,6.0,-999.0,41,-99.99,,,0.00,weatherlink.com 1.10,2013-01-25 02:17:00,
2013-01-24 21:31:00,13.2,-6.0,30.18,WNW,290,3.0,-999.0,42,-99.99,,,0.00,weatherlink.com 1.10,2013-01-25 02:31:00,
2013-01-24 21:46:00,13.2,-6.0,30.18,NW,307,9.0,-999.0,42,-99.99,,,0.00,weatherlink.com 1.10,2013-01-25 02:46:00,
2013-01-24 22:02:00,13.0,-6.0,30.19,WNW,282,7.0,-999.0,42,-99.99,,,0.00,weatherlink.com 1.10,2013-01-25 03:02:00,
2013-01-24 22:16:00,12.8,-6.0,30.20,WNW,294,4.0,-999.0,42,-99.99,,,0.00,weatherlink.com 1.10,2013-01-25 03:16:00,
2013-01-24 22:31:00,12.6,-6.0,30.20,WNW,290,4.0,-999.0,43,-99.99,,,0.00,weatherlink.com 1.10,2013-01-25 03:31:00,
2013-01-24 22:47:00,12.5,-6.0,30.21,WNW,285,9.0,-999.0,43,-99.99,,,0.00,weatherlink.com 1.10,2013-01-25 03:47:00,
2013-01-24 23:01:00,12.3,-6.0,30.21,West,274,13.0,-999.0,44,-99.99,,,0.00,weatherlink.com 1.10,2013-01-25 04:01:00,
2013-01-24 23:16:00,12.1,-6.0,30.22,NW,313,1.0,-999.0,44,-99.99,,,0.00,weatherlink.com 1.10,2013-01-25 04:16:00,
2013-01-24 23:31:00,11.9,-6.0,30.22,WNW,288,11.0,-999.0,44,-99.99,,,0.00,weatherlink.com 1.10,2013-01-25 04:31:00,
2013-01-24 23:46:00,11.9,-6.0,30.22,WNW,291,11.0,-999.0,45,-99.99,,,0.00,weatherlink.com 1.10,2013-01-25 04:46:00,